createdAt,value
2024-03-03T00:00:01.500Z,100.00
2024-03-03T00:01:04.047Z,100.00
2024-03-03T00:02:06.624Z,100.00
2024-03-03T00:03:08.915Z,100.00
2024-03-03T00:04:12.002Z,100.00
2024-03-03T00:05:14.687Z,100.00
2024-03-03T00:06:17.084Z,100.00
2024-03-03T00:07:19.332Z,100.00
2024-03-03T00:08:23.533Z,100.00
2024-03-03T00:09:25.854Z,100.00
2024-03-03T00:10:28.061Z,100.00
2024-03-03T00:11:30.320Z,100.00
2024-03-03T00:12:32.558Z,100.00
2024-03-03T00:13:34.728Z,100.00
2024-03-03T00:14:36.965Z,100.00
2024-03-03T00:15:39.316Z,100.00
2024-03-03T00:16:44.764Z,100.00
2024-03-03T00:17:47.135Z,100.00
2024-03-03T00:18:49.350Z,100.00
2024-03-03T00:19:51.603Z,100.00
2024-03-03T00:20:53.808Z,100.00
2024-03-03T00:21:56.192Z,100.00
2024-03-03T00:22:58.382Z,100.00
2024-03-03T00:24:00.896Z,100.00
2024-03-03T00:25:03.982Z,100.00
2024-03-03T00:26:06.196Z,100.00
2024-03-03T00:27:08.489Z,100.00
2024-03-03T00:28:11.362Z,100.00
2024-03-03T00:29:15.501Z,100.00
2024-03-03T00:30:17.725Z,100.00
2024-03-03T00:31:20.315Z,100.00
2024-03-03T00:32:22.620Z,100.00
2024-03-03T00:33:25.099Z,100.00
2024-03-03T00:34:27.331Z,100.00
2024-03-03T00:35:29.610Z,100.00
2024-03-03T00:36:31.764Z,100.00
2024-03-03T00:37:33.977Z,100.00
2024-03-03T00:38:37.501Z,100.00
2024-03-03T00:39:39.718Z,100.00
2024-03-03T00:40:42.253Z,100.00
2024-03-03T00:41:44.467Z,100.00
2024-03-03T00:42:46.707Z,100.00
2024-03-03T00:43:48.932Z,100.00
2024-03-03T00:44:51.155Z,100.00
2024-03-03T00:45:53.364Z,100.00
2024-03-03T00:46:55.643Z,100.00
2024-03-03T00:47:58.005Z,100.00
2024-03-03T00:49:00.260Z,100.00
2024-03-03T00:50:02.601Z,100.00
2024-03-03T00:51:04.897Z,100.00
2024-03-03T00:52:07.190Z,100.00
2024-03-03T00:53:10.097Z,100.00
2024-03-03T00:54:12.415Z,100.00
2024-03-03T00:55:14.721Z,100.00
2024-03-03T00:56:16.910Z,100.00
2024-03-03T00:57:19.558Z,100.00
2024-03-03T00:58:21.995Z,100.00
2024-03-03T00:59:24.720Z,100.00
2024-03-03T01:00:26.906Z,100.00
2024-03-03T01:01:29.153Z,100.00
2024-03-03T01:02:31.366Z,100.00
2024-03-03T01:03:33.615Z,100.00
2024-03-03T01:04:35.959Z,100.00
2024-03-03T01:05:38.115Z,100.00
2024-03-03T01:06:40.320Z,100.00
2024-03-03T01:07:43.481Z,100.00
2024-03-03T01:08:45.915Z,100.00
2024-03-03T01:09:48.177Z,100.00
2024-03-03T01:10:50.769Z,100.00
2024-03-03T01:11:55.279Z,100.00
2024-03-03T01:12:57.896Z,100.00
2024-03-03T01:14:00.168Z,100.00
2024-03-03T01:15:02.360Z,100.00
2024-03-03T01:16:05.246Z,100.00
2024-03-03T01:17:07.596Z,100.00
2024-03-03T01:18:09.824Z,100.00
2024-03-03T01:19:12.087Z,100.00
2024-03-03T01:20:14.611Z,100.00
2024-03-03T01:21:16.976Z,100.00
2024-03-03T01:22:19.331Z,100.00
2024-03-03T01:23:21.608Z,100.00
2024-03-03T01:24:23.942Z,100.00
2024-03-03T01:25:27.722Z,100.00
2024-03-03T01:26:30.067Z,100.00
2024-03-03T01:27:32.330Z,100.00
2024-03-03T01:28:34.530Z,100.00
2024-03-03T01:29:36.711Z,100.00
2024-03-03T01:30:38.995Z,100.00
2024-03-03T01:31:42.670Z,100.00
2024-03-03T01:32:44.915Z,100.00
2024-03-03T01:33:47.235Z,100.00
2024-03-03T01:34:50.441Z,100.00
2024-03-03T01:35:52.708Z,100.00
2024-03-03T01:36:55.032Z,100.00
2024-03-03T01:37:57.295Z,100.00
2024-03-03T01:38:59.492Z,100.00
2024-03-03T01:40:01.900Z,100.00
2024-03-03T01:41:04.682Z,100.00
2024-03-03T01:42:06.868Z,100.00
2024-03-03T01:43:09.109Z,100.00
2024-03-03T01:44:11.349Z,100.00
2024-03-03T01:45:22.452Z,100.00
2024-03-03T01:46:25.504Z,100.00
2024-03-03T01:47:27.934Z,100.00
2024-03-03T01:48:30.842Z,100.00
2024-03-03T01:49:36.625Z,100.00
2024-03-03T01:50:40.125Z,100.00
2024-03-03T01:51:43.272Z,100.00
2024-03-03T01:52:47.746Z,100.00
2024-03-03T01:53:52.268Z,100.00
2024-03-03T01:54:54.679Z,100.00
2024-03-03T01:55:58.148Z,100.00
2024-03-03T01:57:00.787Z,100.00
2024-03-03T01:58:04.626Z,100.00
2024-03-03T01:59:09.941Z,100.00
2024-03-03T02:00:12.783Z,100.00
2024-03-03T02:01:16.564Z,100.00
2024-03-03T02:02:19.102Z,100.00
2024-03-03T02:03:21.563Z,100.00
2024-03-03T02:04:24.742Z,100.00
2024-03-03T02:05:28.310Z,100.00
2024-03-03T02:06:34.994Z,100.00
2024-03-03T02:07:37.247Z,100.00
2024-03-03T02:08:39.785Z,100.00
2024-03-03T02:09:45.563Z,100.00
2024-03-03T02:10:48.335Z,100.00
2024-03-03T02:11:50.600Z,100.00
2024-03-03T02:12:53.062Z,100.00
2024-03-03T02:13:55.976Z,100.00
2024-03-03T02:14:58.230Z,100.00
2024-03-03T02:16:00.794Z,100.00
2024-03-03T02:17:03.046Z,100.00
2024-03-03T02:18:05.460Z,100.00
2024-03-03T02:19:08.018Z,100.00
2024-03-03T02:20:10.878Z,100.00
2024-03-03T02:21:13.471Z,100.00
2024-03-03T02:22:15.977Z,100.00
2024-03-03T02:23:18.257Z,100.00
2024-03-03T02:24:20.442Z,100.00
2024-03-03T02:25:23.004Z,100.00
2024-03-03T02:26:27.261Z,100.00
2024-03-03T02:27:29.811Z,100.00
2024-03-03T02:28:32.697Z,100.00
2024-03-03T02:29:35.075Z,100.00
2024-03-03T02:30:37.538Z,100.00
2024-03-03T02:31:39.760Z,100.00
2024-03-03T02:32:42.006Z,100.00
2024-03-03T02:33:44.482Z,100.00
2024-03-03T02:34:46.674Z,100.00
2024-03-03T02:35:48.868Z,100.00
2024-03-03T02:36:51.138Z,100.00
2024-03-03T02:37:53.382Z,100.00
2024-03-03T02:38:58.279Z,100.00
2024-03-03T02:40:00.656Z,100.00
2024-03-03T02:41:02.921Z,100.00
2024-03-03T02:42:05.120Z,100.00
2024-03-03T02:43:09.490Z,100.00
2024-03-03T02:44:11.954Z,100.00
2024-03-03T02:45:14.198Z,100.00
2024-03-03T02:46:16.476Z,100.00
2024-03-03T02:47:18.712Z,100.00
2024-03-03T02:48:20.944Z,100.00
2024-03-03T02:49:23.285Z,100.00
2024-03-03T02:50:25.504Z,100.00
2024-03-03T02:51:28.034Z,100.00
2024-03-03T02:52:30.240Z,100.00
2024-03-03T02:53:32.527Z,100.00
2024-03-03T02:54:34.762Z,100.00
2024-03-03T02:55:36.962Z,100.00
2024-03-03T02:56:39.270Z,100.00
2024-03-03T02:57:43.295Z,100.00
2024-03-03T02:58:45.874Z,100.00
2024-03-03T02:59:48.109Z,100.00
2024-03-03T03:00:50.574Z,100.00
2024-03-03T03:01:53.107Z,100.00
2024-03-03T03:02:55.416Z,100.00
2024-03-03T03:03:57.821Z,100.00
2024-03-03T03:05:00.124Z,100.00
2024-03-03T03:06:02.368Z,100.00
2024-03-03T03:07:04.903Z,100.00
2024-03-03T03:08:07.532Z,100.00
2024-03-03T03:09:09.768Z,100.00
2024-03-03T03:10:12.009Z,100.00
2024-03-03T03:11:15.372Z,100.00
2024-03-03T03:12:17.582Z,100.00
2024-03-03T03:13:20.437Z,100.00
2024-03-03T03:14:25.213Z,100.00
2024-03-03T03:15:27.462Z,100.00
2024-03-03T03:16:29.674Z,100.00
2024-03-03T03:17:32.376Z,100.00
2024-03-03T03:18:34.641Z,100.00
2024-03-03T03:19:36.902Z,100.00
2024-03-03T03:20:39.112Z,100.00
2024-03-03T03:21:41.324Z,100.00
2024-03-03T03:22:43.615Z,100.00
2024-03-03T03:23:45.818Z,100.00
2024-03-03T03:24:48.030Z,100.00
2024-03-03T03:25:50.478Z,100.00
2024-03-03T03:26:52.661Z,100.00
2024-03-03T03:27:54.896Z,100.00
2024-03-03T03:28:57.195Z,100.00
2024-03-03T03:29:59.486Z,100.00
2024-03-03T03:31:02.161Z,100.00
2024-03-03T03:32:04.728Z,100.00
2024-03-03T03:33:08.255Z,100.00
2024-03-03T03:34:13.621Z,100.00
2024-03-03T03:35:16.028Z,100.00
2024-03-03T03:36:19.292Z,100.00
2024-03-03T03:37:21.558Z,100.00
2024-03-03T03:38:23.863Z,100.00
2024-03-03T03:39:26.273Z,100.00
2024-03-03T03:40:29.945Z,100.00
2024-03-03T03:41:32.235Z,100.00
2024-03-03T03:42:34.399Z,100.00
2024-03-03T03:43:36.581Z,100.00
2024-03-03T03:44:38.846Z,100.00
2024-03-03T03:45:41.156Z,100.00
2024-03-03T03:46:43.746Z,100.00
2024-03-03T03:47:46.441Z,100.00
2024-03-03T03:48:48.656Z,100.00
2024-03-03T03:49:50.825Z,100.00
2024-03-03T03:50:53.648Z,100.00
2024-03-03T03:51:56.758Z,100.00
2024-03-03T03:52:59.044Z,100.00
2024-03-03T03:54:01.242Z,100.00
2024-03-03T03:55:04.085Z,100.00
2024-03-03T03:56:06.954Z,100.00
2024-03-03T03:57:09.273Z,100.00
2024-03-03T03:58:11.503Z,100.00
2024-03-03T03:59:13.744Z,100.00
2024-03-03T04:00:16.463Z,100.00
2024-03-03T04:01:20.831Z,100.00
2024-03-03T04:02:23.174Z,100.00
2024-03-03T04:03:25.381Z,100.00
2024-03-03T04:04:28.256Z,100.00
2024-03-03T04:05:30.437Z,100.00
2024-03-03T04:06:32.629Z,100.00
2024-03-03T04:07:34.773Z,100.00
2024-03-03T04:08:36.971Z,100.00
2024-03-03T04:09:40.765Z,100.00
2024-03-03T04:10:43.087Z,100.00
2024-03-03T04:11:45.415Z,100.00
2024-03-03T04:12:47.690Z,100.00
2024-03-03T04:13:51.331Z,100.00
2024-03-03T04:14:53.550Z,100.00
2024-03-03T04:15:55.858Z,100.00
2024-03-03T04:16:58.158Z,100.00
2024-03-03T04:18:00.510Z,100.00
2024-03-03T04:19:02.917Z,100.00
2024-03-03T04:20:06.515Z,100.00
2024-03-03T04:21:08.891Z,100.00
2024-03-03T04:22:11.572Z,100.00
2024-03-03T04:23:13.755Z,100.00
2024-03-03T04:24:15.946Z,100.00
2024-03-03T04:25:18.262Z,100.00
2024-03-03T04:26:20.654Z,100.00
2024-03-03T04:27:22.950Z,100.00
2024-03-03T04:28:25.209Z,100.00
2024-03-03T04:29:27.391Z,100.00
2024-03-03T04:30:29.583Z,100.00
2024-03-03T04:31:31.848Z,100.00
2024-03-03T04:32:34.264Z,100.00
2024-03-03T04:33:37.698Z,100.00
2024-03-03T04:34:41.279Z,100.00
2024-03-03T04:35:43.911Z,100.00
2024-03-03T04:36:46.612Z,100.00
2024-03-03T04:37:48.994Z,100.00
2024-03-03T04:38:51.222Z,100.00
2024-03-03T04:39:53.615Z,100.00
2024-03-03T04:40:55.810Z,100.00
2024-03-03T04:41:58.193Z,100.00
2024-03-03T04:43:00.393Z,100.00
2024-03-03T04:44:02.938Z,100.00
2024-03-03T04:45:07.277Z,100.00
2024-03-03T04:46:10.514Z,100.00
2024-03-03T04:47:12.773Z,100.00
2024-03-03T04:48:14.977Z,100.00
2024-03-03T04:49:17.452Z,100.00
2024-03-03T04:50:20.336Z,100.00
2024-03-03T04:51:22.506Z,100.00
2024-03-03T04:52:24.793Z,100.00
2024-03-03T04:53:27.016Z,100.00
2024-03-03T04:54:29.247Z,100.00
2024-03-03T04:55:31.570Z,100.00
2024-03-03T04:56:34.001Z,100.00
2024-03-03T04:57:36.380Z,100.00
2024-03-03T04:58:38.686Z,100.00
2024-03-03T04:59:41.223Z,100.00
2024-03-03T05:00:44.076Z,100.00
2024-03-03T05:01:46.412Z,100.00
2024-03-03T05:02:49.197Z,100.00
2024-03-03T05:03:51.517Z,100.00
2024-03-03T05:04:53.718Z,100.00
2024-03-03T05:05:55.906Z,100.00
2024-03-03T05:06:58.119Z,100.00
2024-03-03T05:08:00.292Z,100.00
2024-03-03T05:09:03.692Z,100.00
2024-03-03T05:10:07.969Z,100.00
2024-03-03T05:11:10.319Z,100.00
2024-03-03T05:12:12.506Z,100.00
2024-03-03T05:13:14.717Z,100.00
2024-03-03T05:14:16.972Z,100.00
2024-03-03T05:15:19.295Z,100.00
2024-03-03T05:16:21.538Z,100.00
2024-03-03T05:17:24.305Z,100.00
2024-03-03T05:18:26.527Z,100.00
2024-03-03T05:19:29.656Z,100.00
2024-03-03T05:20:31.950Z,100.00
2024-03-03T05:21:34.143Z,100.00
2024-03-03T05:22:37.561Z,100.00
2024-03-03T05:23:39.763Z,100.00
2024-03-03T05:24:42.007Z,100.00
2024-03-03T05:25:44.472Z,100.00
2024-03-03T05:26:46.660Z,100.00
2024-03-03T05:27:48.837Z,100.00
2024-03-03T05:28:51.760Z,100.00
2024-03-03T05:29:54.021Z,100.00
2024-03-03T05:30:56.271Z,100.00
2024-03-03T05:31:58.469Z,100.00
2024-03-03T05:33:00.688Z,100.00
2024-03-03T05:34:05.016Z,100.00
2024-03-03T05:35:07.494Z,100.00
2024-03-03T05:36:09.734Z,100.00
2024-03-03T05:37:12.498Z,100.00
2024-03-03T05:38:16.306Z,100.00
2024-03-03T05:39:18.695Z,100.00
2024-03-03T05:40:21.589Z,100.00
2024-03-03T05:41:30.511Z,100.00
2024-03-03T05:42:32.818Z,100.00
2024-03-03T05:43:35.178Z,100.00
2024-03-03T05:44:37.411Z,100.00
2024-03-03T05:45:39.618Z,100.00
2024-03-03T05:46:41.797Z,100.00
2024-03-03T05:47:44.153Z,100.00
2024-03-03T05:48:46.369Z,100.00
2024-03-03T05:49:48.577Z,100.00
2024-03-03T05:50:50.759Z,100.00
2024-03-03T05:51:53.145Z,100.00
2024-03-03T05:52:55.295Z,100.00
2024-03-03T05:53:57.460Z,100.00
2024-03-03T05:54:59.868Z,100.00
2024-03-03T05:56:02.082Z,100.00
2024-03-03T05:57:04.517Z,100.00
2024-03-03T05:58:06.847Z,100.00
2024-03-03T05:59:09.135Z,100.00
2024-03-03T06:00:12.132Z,100.00
2024-03-03T06:01:14.633Z,100.00
2024-03-03T06:02:16.943Z,100.00
2024-03-03T06:03:19.121Z,100.00
2024-03-03T06:04:21.428Z,100.00
2024-03-03T06:05:23.624Z,100.00
2024-03-03T06:06:26.121Z,100.00
2024-03-03T06:07:28.423Z,100.00
2024-03-03T06:08:31.074Z,100.00
2024-03-03T06:09:33.394Z,100.00
2024-03-03T06:10:35.634Z,100.00
2024-03-03T06:11:38.641Z,100.00
2024-03-03T06:12:40.849Z,100.00
2024-03-03T06:13:43.065Z,100.00
2024-03-03T06:14:48.660Z,100.00
2024-03-03T06:15:50.909Z,100.00
2024-03-03T06:16:54.030Z,100.00
2024-03-03T06:17:56.431Z,100.00
2024-03-03T06:18:58.648Z,100.00
2024-03-03T06:20:00.911Z,100.00
2024-03-03T06:21:03.268Z,100.00
2024-03-03T06:22:05.518Z,100.00
2024-03-03T06:23:07.701Z,100.00
2024-03-03T06:24:11.360Z,100.00
2024-03-03T06:25:13.835Z,100.00
2024-03-03T06:26:16.446Z,100.00
2024-03-03T06:27:18.744Z,100.00
2024-03-03T06:28:21.195Z,100.00
2024-03-03T06:29:23.508Z,100.00
2024-03-03T06:30:26.025Z,100.00
2024-03-03T06:31:28.223Z,100.00
2024-03-03T06:32:31.136Z,100.00
2024-03-03T06:33:33.595Z,100.00
2024-03-03T06:34:35.817Z,100.00
2024-03-03T06:35:38.116Z,100.00
2024-03-03T06:36:40.567Z,100.00
2024-03-03T06:37:44.203Z,100.00
2024-03-03T06:38:46.948Z,100.00
2024-03-03T06:39:50.070Z,100.00
2024-03-03T06:40:52.352Z,100.00
2024-03-03T06:41:54.619Z,100.00
2024-03-03T06:42:56.880Z,100.00
2024-03-03T06:43:59.159Z,100.00
2024-03-03T06:45:01.633Z,100.00
2024-03-03T06:46:04.249Z,100.00
2024-03-03T06:47:06.485Z,100.00
2024-03-03T06:48:08.758Z,100.00
2024-03-03T06:49:11.052Z,100.00
2024-03-03T06:50:13.596Z,100.00
2024-03-03T06:51:15.881Z,100.00
2024-03-03T06:52:18.118Z,100.00
2024-03-03T06:53:20.418Z,100.00
2024-03-03T06:54:22.605Z,100.00
2024-03-03T06:55:26.883Z,100.00
2024-03-03T06:56:30.659Z,100.00
2024-03-03T06:57:32.874Z,100.00
2024-03-03T06:58:35.092Z,100.00
2024-03-03T06:59:39.294Z,100.00
2024-03-03T07:00:41.624Z,100.00
2024-03-03T07:01:43.930Z,100.00
2024-03-03T07:03:03.884Z,100.00
2024-03-03T07:04:15.113Z,100.00
2024-03-03T07:05:18.198Z,100.00
2024-03-03T07:06:20.364Z,100.00
2024-03-03T07:07:22.641Z,100.00
2024-03-03T07:08:24.910Z,100.00
2024-03-03T07:09:27.171Z,100.00
2024-03-03T07:10:31.158Z,100.00
2024-03-03T07:11:33.456Z,100.00
2024-03-03T07:12:35.633Z,100.00
2024-03-03T07:13:37.814Z,100.00
2024-03-03T07:14:43.563Z,100.00
2024-03-03T07:15:46.225Z,100.00
2024-03-03T07:16:49.079Z,100.00
2024-03-03T07:17:51.343Z,100.00
2024-03-03T07:18:53.572Z,100.00
2024-03-03T07:19:55.855Z,100.00
2024-03-03T07:20:58.049Z,100.00
2024-03-03T07:22:00.215Z,100.00
2024-03-03T07:23:02.428Z,100.00
2024-03-03T07:24:05.162Z,100.00
2024-03-03T07:25:08.071Z,100.00
2024-03-03T07:26:10.349Z,100.00
2024-03-03T07:27:12.529Z,100.00
2024-03-03T07:28:14.740Z,100.00
2024-03-03T07:29:17.020Z,100.00
2024-03-03T07:30:21.678Z,100.00
2024-03-03T07:31:25.501Z,100.00
2024-03-03T07:32:29.866Z,100.00
2024-03-03T07:33:32.695Z,100.00
2024-03-03T07:34:34.887Z,100.00
2024-03-03T07:35:37.106Z,100.00
2024-03-03T07:36:39.284Z,100.00
2024-03-03T07:37:41.633Z,100.00
2024-03-03T07:38:43.824Z,100.00
2024-03-03T07:39:46.283Z,100.00
2024-03-03T07:40:48.528Z,100.00
2024-03-03T07:41:52.747Z,100.00
2024-03-03T07:42:55.692Z,100.00
2024-03-03T07:43:57.958Z,100.00
2024-03-03T07:45:00.294Z,100.00
2024-03-03T07:46:02.594Z,100.00
2024-03-03T07:47:04.885Z,100.00
2024-03-03T07:48:07.803Z,100.00
2024-03-03T07:49:10.109Z,100.00
2024-03-03T07:50:12.898Z,100.00
2024-03-03T07:51:15.259Z,100.00
2024-03-03T07:52:17.551Z,100.00
2024-03-03T07:53:19.875Z,100.00
2024-03-03T07:54:22.055Z,100.00
2024-03-03T07:55:24.609Z,100.00
2024-03-03T07:56:27.691Z,100.00
2024-03-03T07:57:29.905Z,100.00
2024-03-03T07:58:38.040Z,100.00
2024-03-03T07:59:40.604Z,100.00
2024-03-03T08:00:43.666Z,100.00
2024-03-03T08:01:46.103Z,100.00
2024-03-03T08:02:48.323Z,100.00
2024-03-03T08:03:51.608Z,100.00
2024-03-03T08:04:56.007Z,100.00
2024-03-03T08:05:58.798Z,100.00
2024-03-03T08:07:01.068Z,100.00
2024-03-03T08:08:05.340Z,100.00
2024-03-03T08:09:07.533Z,100.00
2024-03-03T08:10:09.939Z,100.00
2024-03-03T08:11:12.205Z,100.00
2024-03-03T08:12:14.419Z,100.00
2024-03-03T08:13:16.703Z,100.00
2024-03-03T08:14:18.959Z,100.00
2024-03-03T08:15:22.001Z,100.00
2024-03-03T08:16:24.266Z,100.00
2024-03-03T08:17:26.493Z,100.00
2024-03-03T08:18:28.734Z,100.00
2024-03-03T08:19:30.968Z,100.00
2024-03-03T08:20:33.247Z,100.00
2024-03-03T08:21:35.450Z,100.00
2024-03-03T08:22:41.876Z,100.00
2024-03-03T08:23:44.442Z,100.00
2024-03-03T08:24:46.650Z,100.00
2024-03-03T08:25:49.009Z,100.00
2024-03-03T08:26:51.278Z,100.00
2024-03-03T08:28:02.474Z,100.00
2024-03-03T08:29:04.829Z,100.00
2024-03-03T08:30:10.117Z,100.00
2024-03-03T08:31:13.032Z,98.83
2024-03-03T08:32:15.288Z,95.72
2024-03-03T08:33:17.562Z,95.13
2024-03-03T08:34:19.796Z,95.01
2024-03-03T08:35:22.048Z,94.13
2024-03-03T08:36:24.540Z,91.96
2024-03-03T08:37:27.492Z,89.55
2024-03-03T08:38:31.066Z,86.03
2024-03-03T08:39:33.406Z,85.51
2024-03-03T08:40:35.709Z,81.97
2024-03-03T08:41:41.728Z,82.78
2024-03-03T08:42:43.981Z,85.05
2024-03-03T08:43:46.661Z,83.52
2024-03-03T08:44:48.910Z,82.63
2024-03-03T08:45:51.230Z,82.42
2024-03-03T08:46:53.550Z,83.38
2024-03-03T08:47:55.779Z,85.53
2024-03-03T08:48:58.057Z,83.75
2024-03-03T08:50:00.263Z,83.28
2024-03-03T08:51:07.571Z,83.96
2024-03-03T08:52:10.214Z,83.94
2024-03-03T08:53:12.412Z,82.39
2024-03-03T08:54:14.579Z,83.77
2024-03-03T08:55:17.321Z,85.26
2024-03-03T08:56:19.644Z,85.14
2024-03-03T08:57:23.876Z,85.58
2024-03-03T08:58:27.486Z,87.07
2024-03-03T08:59:29.734Z,90.02
2024-03-03T09:00:32.080Z,93.90
2024-03-03T09:01:34.443Z,95.42
2024-03-03T09:02:37.154Z,97.47
2024-03-03T09:03:39.406Z,97.54
2024-03-03T09:04:41.783Z,98.90
2024-03-03T09:05:44.011Z,97.75
2024-03-03T09:06:46.226Z,95.82
2024-03-03T09:07:48.682Z,98.70
2024-03-03T09:08:51.387Z,96.63
2024-03-03T09:09:53.662Z,94.57
2024-03-03T09:11:02.302Z,95.79
2024-03-03T09:12:04.908Z,94.56
2024-03-03T09:13:07.238Z,92.20
2024-03-03T09:14:09.708Z,88.96
2024-03-03T09:15:12.026Z,88.90
2024-03-03T09:16:14.538Z,87.17
2024-03-03T09:17:16.772Z,88.80
2024-03-03T09:18:19.053Z,88.84
2024-03-03T09:19:21.366Z,87.42
2024-03-03T09:20:23.598Z,89.42
2024-03-03T09:21:25.820Z,88.25
2024-03-03T09:22:28.183Z,87.83
2024-03-03T09:23:33.516Z,86.55
2024-03-03T09:24:35.759Z,86.57
2024-03-03T09:25:37.996Z,86.71
2024-03-03T09:26:41.637Z,87.29
2024-03-03T09:27:43.990Z,86.24
2024-03-03T09:28:46.379Z,85.90
2024-03-03T09:29:48.624Z,84.20
2024-03-03T09:30:50.889Z,81.78
2024-03-03T09:31:54.093Z,81.75
2024-03-03T09:32:56.452Z,80.29
2024-03-03T09:33:58.805Z,78.89
2024-03-03T09:35:01.076Z,77.09
2024-03-03T09:36:03.602Z,74.13
2024-03-03T09:37:05.965Z,74.74
2024-03-03T09:38:08.979Z,75.33
2024-03-03T09:39:11.144Z,75.22
2024-03-03T09:40:17.771Z,73.08
2024-03-03T09:41:20.305Z,74.17
2024-03-03T09:42:22.489Z,72.61
2024-03-03T09:43:28.842Z,72.42
2024-03-03T09:44:43.747Z,72.72
2024-03-03T09:45:49.037Z,73.53
2024-03-03T09:46:54.086Z,71.97
2024-03-03T09:47:57.112Z,73.02
2024-03-03T09:48:59.612Z,73.04
2024-03-03T09:50:03.639Z,70.49
2024-03-03T09:51:06.188Z,70.78
2024-03-03T09:52:13.231Z,68.52
2024-03-03T09:53:16.452Z,70.92
2024-03-03T09:54:19.709Z,72.84
2024-03-03T09:55:23.571Z,71.42
2024-03-03T09:56:27.739Z,70.38
2024-03-03T09:57:33.899Z,70.24
2024-03-03T09:58:36.148Z,69.41
2024-03-03T09:59:39.384Z,68.81
2024-03-03T10:00:42.235Z,67.53
2024-03-03T10:01:52.358Z,68.07
2024-03-03T10:02:56.894Z,65.90
2024-03-03T10:04:01.002Z,67.07
2024-03-03T10:05:05.715Z,66.50
2024-03-03T10:06:11.631Z,67.10
2024-03-03T10:07:24.181Z,65.86
2024-03-03T10:08:28.616Z,63.56
2024-03-03T10:09:32.487Z,64.33
2024-03-03T10:10:37.380Z,65.79
2024-03-03T10:11:42.486Z,64.78
2024-03-03T10:12:47.561Z,66.18
2024-03-03T10:13:50.672Z,66.20
2024-03-03T10:14:56.757Z,66.86
2024-03-03T10:16:02.373Z,64.93
2024-03-03T10:17:05.038Z,64.12
2024-03-03T10:18:09.528Z,66.04
2024-03-03T10:19:11.876Z,64.83
2024-03-03T10:20:14.147Z,65.64
2024-03-03T10:21:16.842Z,65.98
2024-03-03T10:22:20.508Z,66.16
2024-03-03T10:23:23.498Z,65.12
2024-03-03T10:24:27.438Z,66.55
2024-03-03T10:25:31.447Z,66.20
2024-03-03T10:26:36.924Z,65.86
2024-03-03T10:27:42.193Z,66.44
2024-03-03T10:29:03.899Z,66.96
2024-03-03T10:30:08.715Z,66.36
2024-03-03T10:31:13.061Z,67.56
2024-03-03T10:32:16.122Z,67.76
2024-03-03T10:33:19.268Z,67.26
2024-03-03T10:34:24.463Z,68.13
2024-03-03T10:35:26.689Z,68.96
2024-03-03T10:36:30.235Z,68.53
2024-03-03T10:37:32.512Z,68.47
2024-03-03T10:38:34.691Z,69.60
2024-03-03T10:39:39.636Z,69.76
2024-03-03T10:40:45.394Z,68.91
2024-03-03T10:41:47.589Z,70.57
2024-03-03T10:42:50.831Z,69.89
2024-03-03T10:45:16.030Z,68.19
2024-03-03T10:46:21.825Z,67.60
2024-03-03T10:47:24.570Z,68.18
2024-03-03T10:48:26.898Z,66.32
2024-03-03T10:49:29.674Z,64.84
2024-03-03T10:50:33.126Z,64.23
2024-03-03T10:51:36.519Z,64.14
2024-03-03T10:52:42.568Z,65.10
2024-03-03T10:53:44.973Z,65.24
2024-03-03T10:54:47.697Z,66.40
2024-03-03T10:55:50.345Z,66.76
2024-03-03T10:56:53.206Z,68.74
2024-03-03T10:57:57.060Z,70.22
2024-03-03T10:59:00.384Z,69.39
2024-03-03T11:00:05.048Z,70.67
2024-03-03T11:01:08.837Z,70.20
2024-03-03T11:02:13.531Z,68.80
2024-03-03T11:03:17.150Z,67.94
2024-03-03T11:04:20.563Z,67.47
2024-03-03T11:05:24.350Z,68.98
2024-03-03T11:06:27.213Z,68.00
2024-03-03T11:07:30.861Z,66.61
2024-03-03T11:08:33.700Z,67.79
2024-03-03T11:09:36.686Z,67.44
2024-03-03T11:10:39.185Z,65.75
2024-03-03T11:11:46.310Z,66.94
2024-03-03T11:12:51.187Z,66.72
2024-03-03T11:14:13.024Z,66.54
2024-03-03T11:15:19.908Z,64.03
2024-03-03T11:16:27.159Z,64.60
2024-03-03T11:17:33.360Z,64.88
2024-03-03T11:18:39.136Z,65.67
2024-03-03T11:19:48.936Z,65.50
2024-03-03T11:20:56.480Z,66.26
2024-03-03T11:22:04.084Z,67.98
2024-03-03T11:23:26.817Z,67.17
2024-03-03T11:24:31.473Z,66.55
2024-03-03T11:25:40.544Z,67.51
2024-03-03T11:26:48.130Z,66.76
2024-03-03T11:27:57.107Z,66.37
2024-03-03T11:29:00.516Z,67.42
2024-03-03T11:30:03.211Z,67.65
2024-03-03T11:31:05.868Z,68.04
2024-03-03T11:32:09.632Z,67.74
2024-03-03T11:33:12.904Z,70.71
2024-03-03T11:34:16.373Z,71.84
2024-03-03T11:35:19.678Z,73.11
2024-03-03T11:36:23.157Z,75.14
2024-03-03T11:37:27.278Z,74.96
2024-03-03T11:38:45.770Z,75.38
2024-03-03T11:39:59.614Z,76.43
2024-03-03T11:41:02.308Z,78.99
2024-03-03T11:42:29.312Z,79.47
2024-03-03T11:43:34.798Z,81.08
2024-03-03T11:44:37.334Z,82.35
2024-03-03T11:45:49.117Z,83.45
2024-03-03T11:46:51.446Z,84.29
2024-03-03T11:47:53.679Z,86.13
2024-03-03T11:49:00.605Z,84.48
2024-03-03T11:50:17.745Z,83.53
2024-03-03T11:51:27.161Z,85.71
2024-03-03T11:52:43.215Z,85.36
2024-03-03T11:53:58.397Z,85.25
2024-03-03T11:55:00.600Z,85.02
2024-03-03T11:56:02.790Z,83.66
2024-03-03T11:57:10.257Z,82.86
2024-03-03T11:58:19.153Z,82.64
2024-03-03T11:59:25.927Z,81.83
2024-03-03T12:00:29.644Z,82.33
2024-03-03T12:01:35.013Z,80.81
2024-03-03T12:02:39.582Z,80.45
2024-03-03T12:03:42.615Z,79.03
2024-03-03T12:04:47.721Z,79.02
2024-03-03T12:05:51.152Z,79.56
2024-03-03T12:06:53.407Z,80.49
2024-03-03T12:07:57.104Z,79.73
2024-03-03T12:09:04.112Z,79.05
2024-03-03T12:10:17.578Z,77.78
2024-03-03T12:11:20.495Z,78.44
2024-03-03T12:12:22.716Z,77.57
2024-03-03T12:13:27.241Z,78.19
2024-03-03T12:14:30.889Z,78.13
2024-03-03T12:15:33.113Z,75.86
2024-03-03T12:16:35.330Z,75.79
2024-03-03T12:17:38.098Z,77.89
2024-03-03T12:18:40.279Z,78.22
2024-03-03T12:19:42.723Z,77.84
2024-03-03T12:20:45.600Z,76.90
2024-03-03T12:21:47.826Z,76.95
2024-03-03T12:22:51.246Z,76.25
2024-03-03T12:23:53.597Z,75.45
2024-03-03T12:24:57.017Z,77.30
2024-03-03T12:26:03.255Z,80.30
2024-03-03T12:27:08.184Z,81.37
2024-03-03T12:28:10.888Z,81.67
2024-03-03T12:29:13.154Z,82.52
2024-03-03T12:30:21.505Z,83.42
2024-03-03T12:31:23.860Z,85.20
2024-03-03T12:32:27.889Z,84.21
2024-03-03T12:33:30.116Z,83.64
2024-03-03T12:34:32.379Z,83.93
2024-03-03T12:35:35.282Z,84.21
2024-03-03T12:36:37.540Z,84.90
2024-03-03T12:37:40.008Z,84.10
2024-03-03T12:38:43.000Z,82.51
2024-03-03T12:39:45.501Z,82.23
2024-03-03T12:40:48.426Z,80.40
2024-03-03T12:41:50.630Z,79.45
2024-03-03T12:42:53.165Z,78.92
2024-03-03T12:43:56.646Z,77.54
2024-03-03T12:45:00.486Z,77.40
2024-03-03T12:46:02.830Z,77.42
2024-03-03T12:47:12.650Z,76.00
2024-03-03T12:48:14.959Z,76.69
2024-03-03T12:49:18.469Z,77.99
2024-03-03T12:50:21.429Z,79.72
2024-03-03T12:51:23.912Z,81.13
2024-03-03T12:52:26.229Z,81.22
2024-03-03T12:53:39.311Z,80.39
2024-03-03T12:54:43.189Z,78.70
2024-03-03T12:55:45.352Z,79.86
2024-03-03T12:56:48.101Z,79.62
2024-03-03T12:57:50.784Z,78.80
2024-03-03T12:58:53.118Z,80.48
2024-03-03T12:59:56.420Z,79.53
2024-03-03T13:00:58.905Z,77.96
2024-03-03T13:02:01.782Z,76.24
2024-03-03T13:03:04.197Z,75.72
2024-03-03T13:04:12.810Z,75.74
2024-03-03T13:05:16.881Z,74.80
2024-03-03T13:06:20.258Z,72.95
2024-03-03T13:07:23.764Z,73.34
2024-03-03T13:08:26.010Z,73.94
2024-03-03T13:09:31.389Z,75.32
2024-03-03T13:10:35.392Z,74.59
2024-03-03T13:11:37.773Z,76.60
2024-03-03T13:12:40.015Z,75.21
2024-03-03T13:13:42.248Z,76.20
2024-03-03T13:14:44.778Z,76.84
2024-03-03T13:15:51.033Z,75.82
2024-03-03T13:17:05.548Z,76.27
2024-03-03T13:18:09.385Z,76.88
2024-03-03T13:19:12.724Z,80.41